Time,TemperatureF,DewpointF,PressureIn,WindDirection,WindDirectionDegrees,WindSpeedMPH,WindSpeedGustMPH,Humidity,HourlyPrecipIn,Conditions,Clouds,dailyrainin,SolarRadiationWatts/m^2,SoftwareType,DateUTC
2013-03-04 00:02:00,39.4,32.1,29.96,North,11,10.0,13.0,75,0.00,,,0.00,0,Wunderground v.1.15,2013-03-03 22:02:00,
2013-03-04 00:12:00,39.3,32.4,29.96,NNE,17,9.0,10.0,76,0.00,,,0.00,0,Wunderground v.1.15,2013-03-03 22:12:00,
2013-03-04 00:22:00,39.3,32.0,29.96,North,355,10.0,10.0,75,0.00,,,0.00,0,Wunderground v.1.15,2013-03-03 22:22:00,
2013-03-04 00:32:00,39.5,31.9,29.96,NNE,13,10.0,10.0,74,0.00,,,0.00,0,Wunderground v.1.15,2013-03-03 22:32:00,
2013-03-04 00:42:00,39.3,32.0,29.96,NNE,24,7.0,7.0,75,0.00,,,0.00,0,Wunderground v.1.15,2013-03-03 22:42:00,
2013-03-04 00:52:00,39.0,31.7,29.96,NNE,24,5.0,5.0,75,0.00,,,0.00,0,Wunderground v.1.15,2013-03-03 22:52:00,
2013-03-04 01:02:00,38.8,31.9,29.96,NE,36,4.0,4.0,76,0.00,,,0.00,0,Wunderground v.1.15,2013-03-03 23:02:00,
2013-03-04 01:12:00,38.8,31.9,29.96,North,360,5.0,6.0,76,0.00,,,0.00,0,Wunderground v.1.15,2013-03-03 23:12:00,
2013-03-04 01:22:00,39.0,32.1,29.97,North,9,6.0,6.0,76,0.00,,,0.00,0,Wunderground v.1.15,2013-03-03 23:22:00,
2013-03-04 01:32:00,38.9,31.6,29.97,NNE,19,5.0,5.0,75,0.00,,,0.00,0,Wunderground v.1.15,2013-03-03 23:32:00,
2013-03-04 01:42:00,38.8,31.6,29.97,NNE,24,4.0,6.0,75,0.00,,,0.00,0,Wunderground v.1.15,2013-03-03 23:42:00,
2013-03-04 01:52:00,38.9,32.3,29.97,North,9,5.0,5.0,77,0.00,,,0.00,0,Wunderground v.1.15,2013-03-03 23:52:00,
2013-03-04 02:02:00,38.8,31.6,29.97,North,5,4.0,4.0,75,0.00,,,0.00,0,Wunderground v.1.15,2013-03-04 00:02:00,
2013-03-04 02:12:00,38.7,31.5,29.97,NNE,22,3.0,3.0,75,0.00,,,0.00,0,Wunderground v.1.15,2013-03-04 00:12:00,
2013-03-04 02:22:00,38.7,31.5,29.97,NNE,15,3.0,3.0,75,0.00,,,0.00,0,Wunderground v.1.15,2013-03-04 00:22:00,
2013-03-04 02:32:00,38.7,31.5,29.97,North,355,4.0,7.0,75,0.00,,,0.00,0,Wunderground v.1.15,2013-03-04 00:32:00,
2013-03-04 02:42:00,38.7,31.1,29.97,NNE,28,5.0,5.0,74,0.00,,,0.00,0,Wunderground v.1.15,2013-03-04 00:42:00,
2013-03-04 02:52:00,38.9,31.6,29.98,North,5,5.0,5.0,75,0.00,,,0.00,0,Wunderground v.1.15,2013-03-04 00:52:00,
2013-03-04 03:02:00,39.0,31.4,29.98,North,10,6.0,8.0,74,0.00,,,0.00,0,Wunderground v.1.15,2013-03-04 01:02:00,
2013-03-04 03:12:00,38.9,31.3,29.98,North,11,6.0,6.0,74,0.00,,,0.00,0,Wunderground v.1.15,2013-03-04 01:12:00,
2013-03-04 03:22:00,39.0,31.4,29.98,North,9,5.0,5.0,74,0.00,,,0.00,0,Wunderground v.1.15,2013-03-04 01:22:00,
2013-03-04 03:32:00,38.7,31.1,29.98,North,360,2.0,2.0,74,0.00,,,0.00,0,Wunderground v.1.15,2013-03-04 01:32:00,
2013-03-04 03:42:00,38.5,31.3,29.98,NNW,341,3.0,3.0,75,0.00,,,0.00,0,Wunderground v.1.15,2013-03-04 01:42:00,
2013-03-04 03:52:00,38.3,31.1,29.98,NNW,340,4.0,4.0,75,0.00,,,0.00,0,Wunderground v.1.15,2013-03-04 01:52:00,
2013-03-04 04:02:00,38.2,31.3,29.98,NNW,341,3.0,4.0,76,0.00,,,0.00,0,Wunderground v.1.15,2013-03-04 02:02:00,
2013-03-04 04:12:00,38.1,31.2,29.98,NNW,344,2.0,2.0,76,0.00,,,0.00,0,Wunderground v.1.15,2013-03-04 02:12:00,
2013-03-04 04:22:00,38.0,31.1,29.98,NNW,332,2.0,4.0,76,0.00,,,0.00,0,Wunderground v.1.15,2013-03-04 02:22:00,
2013-03-04 04:32:00,38.1,31.2,29.99,NNW,328,3.0,3.0,76,0.00,,,0.00,0,Wunderground v.1.15,2013-03-04 02:32:00,
2013-03-04 04:42:00,38.0,31.1,29.99,NW,326,2.0,2.0,76,0.00,,,0.00,0,Wunderground v.1.15,2013-03-04 02:42:00,
2013-03-04 04:52:00,37.7,30.8,29.99,NW,326,0.0,0.0,76,0.00,,,0.00,0,Wunderground v.1.15,2013-03-04 02:52:00,
2013-03-04 05:02:00,37.5,30.9,29.99,NW,326,0.0,0.0,77,0.00,,,0.00,0,Wunderground v.1.15,2013-03-04 03:02:00,
2013-03-04 05:12:00,37.2,30.7,29.99,NW,326,0.0,0.0,77,0.00,,,0.00,0,Wunderground v.1.15,2013-03-04 03:12:00,
2013-03-04 05:22:00,36.9,31.0,30.00,NW,326,0.0,2.0,79,0.00,,,0.00,0,Wunderground v.1.15,2013-03-04 03:22:00,
2013-03-04 05:32:00,37.2,31.0,30.00,NNW,348,2.0,3.0,78,0.00,,,0.00,0,Wunderground v.1.15,2013-03-04 03:32:00,
2013-03-04 05:42:00,37.5,31.3,30.00,NW,317,4.0,5.0,78,0.00,,,0.00,0,Wunderground v.1.15,2013-03-04 03:42:00,
2013-03-04 05:52:00,37.7,31.5,30.01,NNW,339,5.0,5.0,78,0.00,,,0.00,0,Wunderground v.1.15,2013-03-04 03:52:00,
2013-03-04 06:02:00,37.7,31.1,30.00,NNW,333,4.0,4.0,77,0.00,,,0.00,0,Wunderground v.1.15,2013-03-04 04:02:00,
2013-03-04 06:12:00,38.0,31.4,30.00,NNW,329,3.0,3.0,77,0.00,,,0.00,0,Wunderground v.1.15,2013-03-04 04:12:00,
2013-03-04 06:22:00,37.5,31.3,30.01,NNW,329,1.0,1.0,78,0.00,,,0.00,0,Wunderground v.1.15,2013-03-04 04:22:00,
2013-03-04 06:32:00,37.0,31.1,30.01,NNW,329,0.0,1.0,79,0.00,,,0.00,0,Wunderground v.1.15,2013-03-04 04:32:00,
2013-03-04 06:42:00,36.7,31.1,30.01,NNW,329,0.0,0.0,80,0.00,,,0.00,9,Wunderground v.1.15,2013-03-04 04:42:00,
2013-03-04 06:52:00,37.2,31.6,30.01,WNW,299,2.0,2.0,80,0.00,,,0.00,16,Wunderground v.1.15,2013-03-04 04:52:00,
2013-03-04 07:02:00,37.3,31.7,30.02,NNW,337,4.0,4.0,80,0.00,,,0.00,26,Wunderground v.1.15,2013-03-04 05:02:00,
2013-03-04 07:12:00,37.7,31.8,30.02,NNW,329,4.0,5.0,79,0.00,,,0.00,49,Wunderground v.1.15,2013-03-04 05:12:00,
2013-03-04 07:22:00,38.0,32.7,30.02,WNW,302,4.0,4.0,81,0.00,,,0.00,70,Wunderground v.1.15,2013-03-04 05:22:00,
2013-03-04 07:32:00,38.7,34.0,30.02,North,349,2.0,3.0,83,0.00,,,0.00,97,Wunderground v.1.15,2013-03-04 05:32:00,
2013-03-04 07:42:00,39.1,33.5,30.03,WNW,299,1.0,1.0,80,0.00,,,0.00,127,Wunderground v.1.15,2013-03-04 05:42:00,
2013-03-04 07:52:00,39.7,34.3,30.03,NNW,341,2.0,3.0,81,0.00,,,0.00,153,Wunderground v.1.15,2013-03-04 05:52:00,
2013-03-04 08:02:00,40.3,34.9,30.04,ENE,68,2.0,2.0,81,0.00,,,0.00,183,Wunderground v.1.15,2013-03-04 06:02:00,
2013-03-04 08:12:00,40.8,35.1,30.05,NNW,328,3.0,5.0,80,0.00,,,0.00,214,Wunderground v.1.15,2013-03-04 06:12:00,
2013-03-04 08:22:00,40.6,35.5,30.05,NNW,333,5.0,5.0,82,0.00,,,0.00,236,Wunderground v.1.15,2013-03-04 06:22:00,
2013-03-04 08:32:00,40.2,34.8,30.05,NNW,333,5.0,5.0,81,0.00,,,0.00,269,Wunderground v.1.15,2013-03-04 06:32:00,
2013-03-04 08:42:00,40.7,35.0,30.05,NW,324,5.0,6.0,80,0.00,,,0.00,287,Wunderground v.1.15,2013-03-04 06:42:00,
2013-03-04 08:52:00,41.1,34.8,30.05,North,5,6.0,6.0,78,0.00,,,0.00,327,Wunderground v.1.15,2013-03-04 06:52:00,
2013-03-04 09:02:00,41.8,34.1,30.06,NW,321,4.0,5.0,74,0.00,,,0.00,348,Wunderground v.1.15,2013-03-04 07:02:00,
2013-03-04 09:22:00,42.8,34.0,30.05,West,275,2.0,2.0,71,0.00,,,0.00,392,Wunderground v.1.15,2013-03-04 07:22:00,
2013-03-04 09:32:00,43.1,32.9,30.05,WNW,298,2.0,2.0,67,0.00,,,0.00,410,Wunderground v.1.15,2013-03-04 07:32:00,
2013-03-04 09:42:00,43.2,31.8,30.05,NW,313,4.0,6.0,64,0.00,,,0.00,431,Wunderground v.1.15,2013-03-04 07:42:00,
2013-03-04 09:52:00,43.9,30.5,30.05,NNW,327,4.0,5.0,59,0.00,,,0.00,457,Wunderground v.1.15,2013-03-04 07:52:00,
2013-03-04 10:12:00,45.3,31.4,30.05,WNW,284,5.0,5.0,58,0.00,,,0.00,512,Wunderground v.1.15,2013-03-04 08:12:00,
2013-03-04 10:42:00,47.8,31.9,30.05,NNE,32,2.0,3.0,54,0.00,,,0.00,545,Wunderground v.1.15,2013-03-04 08:42:00,
2013-03-04 11:02:00,47.7,31.9,30.06,NNW,335,3.0,11.0,54,0.00,,,0.00,584,Wunderground v.1.15,2013-03-04 09:02:00,
2013-03-04 11:12:00,48.6,32.7,30.06,NW,311,4.0,5.0,54,0.00,,,0.00,599,Wunderground v.1.15,2013-03-04 09:12:00,
2013-03-04 11:22:00,49.3,34.3,30.06,SSE,153,2.0,2.0,56,0.00,,,0.00,650,Wunderground v.1.15,2013-03-04 09:22:00,
2013-03-04 11:32:00,48.4,35.6,30.06,South,186,4.0,4.0,61,0.00,,,0.00,570,Wunderground v.1.15,2013-03-04 09:32:00,
2013-03-04 11:42:00,47.6,34.8,30.06,WSW,250,4.0,6.0,61,0.00,,,0.00,770,Wunderground v.1.15,2013-03-04 09:42:00,
2013-03-04 11:52:00,46.5,35.0,30.06,WSW,250,5.0,5.0,64,0.00,,,0.00,279,Wunderground v.1.15,2013-03-04 09:52:00,
2013-03-04 12:12:00,45.7,34.2,30.06,SSE,156,5.0,5.0,64,0.00,,,0.00,241,Wunderground v.1.15,2013-03-04 10:12:00,
2013-03-04 12:22:00,45.7,35.0,30.06,East,96,4.0,4.0,66,0.00,,,0.00,251,Wunderground v.1.15,2013-03-04 10:22:00,
2013-03-04 12:32:00,45.4,35.1,30.07,South,175,4.0,4.0,67,0.00,,,0.00,359,Wunderground v.1.15,2013-03-04 10:32:00,
2013-03-04 12:42:00,45.3,35.4,30.06,South,169,5.0,5.0,68,0.00,,,0.00,309,Wunderground v.1.15,2013-03-04 10:42:00,
2013-03-04 12:52:00,45.7,35.4,30.06,SSW,199,4.0,4.0,67,0.00,,,0.00,279,Wunderground v.1.15,2013-03-04 10:52:00,
2013-03-04 13:02:00,46.0,35.7,30.06,SE,134,3.0,4.0,67,0.00,,,0.00,304,Wunderground v.1.15,2013-03-04 11:02:00,
2013-03-04 13:12:00,45.9,35.6,30.07,SSW,213,3.0,3.0,67,0.00,,,0.00,287,Wunderground v.1.15,2013-03-04 11:12:00,
2013-03-04 13:22:00,47.0,35.0,30.06,NNW,343,2.0,2.0,63,0.00,,,0.00,640,Wunderground v.1.15,2013-03-04 11:22:00,
2013-03-04 13:32:00,47.2,34.0,30.07,WNW,292,5.0,5.0,60,0.00,,,0.00,598,Wunderground v.1.15,2013-03-04 11:32:00,
2013-03-04 13:42:00,48.1,33.6,30.06,NNW,334,4.0,7.0,57,0.00,,,0.00,580,Wunderground v.1.15,2013-03-04 11:42:00,
2013-03-04 14:02:00,47.3,32.8,30.07,NNW,335,8.0,9.0,57,0.00,,,0.00,561,Wunderground v.1.15,2013-03-04 12:02:00,
2013-03-04 14:12:00,46.5,30.7,30.07,North,350,11.0,16.0,54,0.00,,,0.00,543,Wunderground v.1.15,2013-03-04 12:12:00,
2013-03-04 14:22:00,46.7,31.8,30.06,NNW,333,10.0,10.0,56,0.00,,,0.00,517,Wunderground v.1.15,2013-03-04 12:22:00,
2013-03-04 14:32:00,47.8,32.9,30.07,North,355,8.0,8.0,56,0.00,,,0.00,496,Wunderground v.1.15,2013-03-04 12:32:00,
2013-03-04 14:42:00,47.0,32.5,30.06,NW,316,8.0,14.0,57,0.00,,,0.00,478,Wunderground v.1.15,2013-03-04 12:42:00,
2013-03-04 14:52:00,46.5,32.9,30.07,WNW,284,9.0,10.0,59,0.00,,,0.00,464,Wunderground v.1.15,2013-03-04 12:52:00,
2013-03-04 15:02:00,46.4,32.0,30.07,NNW,348,9.0,9.0,57,0.00,,,0.00,445,Wunderground v.1.15,2013-03-04 13:02:00,
2013-03-04 15:12:00,46.0,32.9,30.07,NNW,327,10.0,10.0,60,0.00,,,0.00,417,Wunderground v.1.15,2013-03-04 13:12:00,
2013-03-04 15:22:00,47.0,33.4,30.07,North,11,6.0,6.0,59,0.00,,,0.00,388,Wunderground v.1.15,2013-03-04 13:22:00,
2013-03-04 15:32:00,47.0,33.4,30.07,NNW,333,8.0,8.0,59,0.00,,,0.00,371,Wunderground v.1.15,2013-03-04 13:32:00,
2013-03-04 15:42:00,47.9,35.1,30.07,NNW,335,8.0,8.0,61,0.00,,,0.00,341,Wunderground v.1.15,2013-03-04 13:42:00,
2013-03-04 16:02:00,46.9,35.4,30.08,NW,318,9.0,10.0,64,0.00,,,0.00,297,Wunderground v.1.15,2013-03-04 14:02:00,
2013-03-04 16:12:00,47.0,35.4,30.08,NNW,330,8.0,10.0,64,0.00,,,0.00,251,Wunderground v.1.15,2013-03-04 14:12:00,
2013-03-04 16:22:00,46.7,35.9,30.08,North,5,7.0,7.0,66,0.00,,,0.00,239,Wunderground v.1.15,2013-03-04 14:22:00,
2013-03-04 16:32:00,46.0,35.3,30.09,NNW,347,8.0,8.0,66,0.00,,,0.00,223,Wunderground v.1.15,2013-03-04 14:32:00,
2013-03-04 16:52:00,44.8,35.2,30.09,NNE,15,10.0,10.0,69,0.00,,,0.00,69,Wunderground v.1.15,2013-03-04 14:52:00,
2013-03-04 17:02:00,44.6,35.8,30.09,NE,44,7.0,7.0,71,0.00,,,0.00,33,Wunderground v.1.15,2013-03-04 15:02:00,
2013-03-04 17:12:00,44.7,36.2,30.09,North,5,7.0,8.0,72,0.00,,,0.00,23,Wunderground v.1.15,2013-03-04 15:12:00,
2013-03-04 17:32:00,44.0,36.2,30.10,NNW,348,9.0,9.0,74,0.00,,,0.00,21,Wunderground v.1.15,2013-03-04 15:32:00,
2013-03-04 17:42:00,44.0,36.6,30.10,North,350,8.0,12.0,75,0.00,,,0.00,11,Wunderground v.1.15,2013-03-04 15:42:00,
2013-03-04 17:52:00,44.0,37.6,30.11,NW,325,9.0,9.0,78,0.00,,,0.00,5,Wunderground v.1.15,2013-03-04 15:52:00,
2013-03-04 18:12:00,43.7,37.3,30.12,NNW,332,8.0,8.0,78,0.00,,,0.00,0,Wunderground v.1.15,2013-03-04 16:12:00,
2013-03-04 18:42:00,43.5,37.4,30.13,NNW,348,10.0,10.0,79,0.00,,,0.00,0,Wunderground v.1.15,2013-03-04 16:42:00,
2013-03-04 19:02:00,43.5,36.8,30.14,North,11,7.0,11.0,77,0.00,,,0.00,0,Wunderground v.1.15,2013-03-04 17:02:00,
2013-03-04 19:32:00,43.2,36.5,30.16,NE,38,7.0,9.0,77,0.00,,,0.00,0,Wunderground v.1.15,2013-03-04 17:32:00,
2013-03-04 19:42:00,43.0,36.6,30.16,North,9,9.0,11.0,78,0.00,,,0.00,0,Wunderground v.1.15,2013-03-04 17:42:00,
2013-03-04 19:52:00,42.8,36.4,30.17,North,349,12.0,16.0,78,0.00,,,0.00,0,Wunderground v.1.15,2013-03-04 17:52:00,
2013-03-04 20:02:00,42.8,36.7,30.17,North,360,9.0,9.0,79,0.00,,,0.00,0,Wunderground v.1.15,2013-03-04 18:02:00,
2013-03-04 20:12:00,42.7,36.6,30.17,NNE,19,9.0,11.0,79,0.00,,,0.00,0,Wunderground v.1.15,2013-03-04 18:12:00,
2013-03-04 20:22:00,42.6,36.5,30.18,NNE,32,9.0,9.0,79,0.00,,,0.00,0,Wunderground v.1.15,2013-03-04 18:22:00,
2013-03-04 20:32:00,42.7,36.6,30.18,NE,35,8.0,12.0,79,0.00,,,0.00,0,Wunderground v.1.15,2013-03-04 18:32:00,
2013-03-04 20:42:00,42.7,36.6,30.19,NE,49,8.0,8.0,79,0.00,,,0.00,0,Wunderground v.1.15,2013-03-04 18:42:00,
2013-03-04 20:52:00,42.7,36.6,30.19,NNE,21,8.0,9.0,79,0.00,,,0.00,0,Wunderground v.1.15,2013-03-04 18:52:00,
2013-03-04 21:02:00,42.5,36.8,30.19,NNE,13,9.0,13.0,80,0.00,,,0.00,0,Wunderground v.1.15,2013-03-04 19:02:00,
2013-03-04 21:22:00,42.3,36.3,30.20,NNE,28,9.0,9.0,79,0.00,,,0.00,0,Wunderground v.1.15,2013-03-04 19:22:00,
2013-03-04 21:32:00,42.1,36.1,30.20,North,355,9.0,9.0,79,0.00,,,0.00,0,Wunderground v.1.15,2013-03-04 19:32:00,
2013-03-04 21:42:00,42.1,36.1,30.20,NNE,19,7.0,8.0,79,0.00,,,0.00,0,Wunderground v.1.15,2013-03-04 19:42:00,
2013-03-04 21:52:00,41.9,35.9,30.21,NNE,21,8.0,8.0,79,0.00,,,0.00,0,Wunderground v.1.15,2013-03-04 19:52:00,
2013-03-04 22:02:00,41.8,36.1,30.21,NE,36,6.0,6.0,80,0.00,,,0.00,0,Wunderground v.1.15,2013-03-04 20:02:00,
2013-03-04 22:12:00,41.8,36.1,30.21,North,5,6.0,6.0,80,0.00,,,0.00,0,Wunderground v.1.15,2013-03-04 20:12:00,
2013-03-04 22:42:00,41.4,35.7,30.21,NNE,20,6.0,6.0,80,0.00,,,0.00,0,Wunderground v.1.15,2013-03-04 20:42:00,
2013-03-04 23:12:00,41.6,35.6,30.22,North,11,6.0,6.0,79,0.00,,,0.00,0,Wunderground v.1.15,2013-03-04 21:12:00,
2013-03-04 23:22:00,41.5,35.5,30.22,NNE,30,5.0,6.0,79,0.00,,,0.00,0,Wunderground v.1.15,2013-03-04 21:22:00,
2013-03-04 23:32:00,41.6,35.2,30.22,ENE,78,5.0,5.0,78,0.00,,,0.00,0,Wunderground v.1.15,2013-03-04 21:32:00,
2013-03-04 23:42:00,41.6,35.6,30.23,North,11,5.0,5.0,79,0.00,,,0.00,0,Wunderground v.1.15,2013-03-04 21:42:00,